River Hills, Wisconsin
Current Conditions -  °F | °C
As of 3:45 PM on Friday 31 Oct 2014 (Local Time) from KMWC Reporting Station
Overcast Overcast  
Wind Chill: 27°   Ceiling: 4800
Heat Index: 37°   Visibility: 10mi
Dew Point: 19°   Wind: 20mph
Humidity: 48%   Direction: 360°N
Pressure: 30.3"   Gusts: 33mph
Location:  43.1576°N, 87.9144°W
Report Text: KMWC 312045Z AUTO 36017G29KT 10SM OVC048 03/M07 A3030
Loading
Personal Weather Stations






























Interactive Weather Map
Tropical Storm Tracking
New forecast layout! Learn more

10-Day Weather Forecast

Advertisements
Track Severe Weather on mobile